sensor_id;sensor_type;location;lat;lon;timestamp;pressure;altitude;pressure_sealevel;temperature;humidity
4133;BME280;2080;51.038;7.008;2023-05-24T00:01:21;47804.63;;;-142.53;60.05
4133;BME280;2080;51.038;7.008;2023-05-24T00:03:50;47833.50;;;-142.53;60.62
4133;BME280;2080;51.038;7.008;2023-05-24T00:06:17;47829.66;;;-142.53;61.00
4133;BME280;2080;51.038;7.008;2023-05-24T00:08:42;47833.50;;;-142.53;61.16
4133;BME280;2080;51.038;7.008;2023-05-24T00:11:10;47787.28;;;-142.53;61.84
4133;BME280;2080;51.038;7.008;2023-05-24T00:13:37;47814.25;;;-142.53;61.84
4133;BME280;2080;51.038;7.008;2023-05-24T00:16:03;47814.25;;;-142.53;62.39
4133;BME280;2080;51.038;7.008;2023-05-24T00:18:29;47810.41;;;-142.53;62.73
4133;BME280;2080;51.038;7.008;2023-05-24T00:21:06;47802.69;;;-142.53;63.45
4133;BME280;2080;51.038;7.008;2023-05-24T00:23:32;47744.91;;;-142.53;61.83
4133;BME280;2080;51.038;7.008;2023-05-24T00:26:00;47818.09;;;-142.53;62.22
4133;BME280;2080;51.038;7.008;2023-05-24T00:28:26;47771.88;;;-142.53;62.29
4133;BME280;2080;51.038;7.008;2023-05-24T00:30:54;47821.94;;;-142.53;62.73
4133;BME280;2080;51.038;7.008;2023-05-24T00:33:19;47843.13;;;-142.53;63.24
4133;BME280;2080;51.038;7.008;2023-05-24T00:35:49;47821.94;;;-142.53;62.30
4133;BME280;2080;51.038;7.008;2023-05-24T00:38:26;47814.25;;;-142.53;62.71
4133;BME280;2080;51.038;7.008;2023-05-24T00:40:54;47818.09;;;-142.53;61.84
4133;BME280;2080;51.038;7.008;2023-05-24T00:43:25;47829.66;;;-142.53;62.37
4133;BME280;2080;51.038;7.008;2023-05-24T00:46:10;47795.00;;;-142.53;63.22
4133;BME280;2080;51.038;7.008;2023-05-24T00:48:37;47810.41;;;-142.53;62.34
4133;BME280;2080;51.038;7.008;2023-05-24T00:51:03;47771.88;;;-142.53;62.98
4133;BME280;2080;51.038;7.008;2023-05-24T00:53:29;47781.50;;;-142.53;62.96
4133;BME280;2080;51.038;7.008;2023-05-24T00:55:54;47860.47;;;-142.53;63.48
4133;BME280;2080;51.038;7.008;2023-05-24T00:58:20;47795.00;;;-142.53;63.97
4133;BME280;2080;51.038;7.008;2023-05-24T01:00:51;47779.59;;;-142.53;63.28
4133;BME280;2080;51.038;7.008;2023-05-24T01:03:21;47810.41;;;-142.53;64.24
4133;BME280;2080;51.038;7.008;2023-05-24T01:05:47;47791.13;;;-142.53;64.43
4133;BME280;2080;51.038;7.008;2023-05-24T01:11:05;47796.91;;;-142.53;66.45
4133;BME280;2080;51.038;7.008;2023-05-24T01:13:52;47818.09;;;-142.53;66.28
4133;BME280;2080;51.038;7.008;2023-05-24T01:22:17;47785.34;;;-142.53;67.20
4133;BME280;2080;51.038;7.008;2023-05-24T01:24:58;47825.81;;;-142.53;67.11
4133;BME280;2080;51.038;7.008;2023-05-24T01:27:31;47837.38;;;-142.53;68.25
4133;BME280;2080;51.038;7.008;2023-05-24T01:29:58;47785.34;;;-142.53;69.32
4133;BME280;2080;51.038;7.008;2023-05-24T01:32:24;47771.88;;;-142.53;70.24
4133;BME280;2080;51.038;7.008;2023-05-24T01:34:49;47806.53;;;-142.53;70.97
4133;BME280;2080;51.038;7.008;2023-05-24T01:37:15;47814.25;;;-142.53;71.99
4133;BME280;2080;51.038;7.008;2023-05-24T01:39:41;47791.13;;;-142.53;72.14
4133;BME280;2080;51.038;7.008;2023-05-24T01:47:50;47802.69;;;-142.53;73.14
4133;BME280;2080;51.038;7.008;2023-05-24T01:50:24;47821.94;;;-142.53;74.29
4133;BME280;2080;51.038;7.008;2023-05-24T01:52:51;47802.69;;;-142.53;73.81
4133;BME280;2080;51.038;7.008;2023-05-24T01:55:20;47806.53;;;-142.53;74.73
4133;BME280;2080;51.038;7.008;2023-05-24T01:57:49;47791.13;;;-142.53;75.95
4133;BME280;2080;51.038;7.008;2023-05-24T02:00:17;47833.50;;;-142.53;76.99
4133;BME280;2080;51.038;7.008;2023-05-24T02:02:43;47771.88;;;-142.53;76.25
4133;BME280;2080;51.038;7.008;2023-05-24T02:05:09;47821.94;;;-142.53;75.98
4133;BME280;2080;51.038;7.008;2023-05-24T02:07:37;47821.94;;;-142.53;75.28
4133;BME280;2080;51.038;7.008;2023-05-24T02:10:03;47779.59;;;-142.53;76.49
4133;BME280;2080;51.038;7.008;2023-05-24T02:12:28;47818.09;;;-142.53;77.56
4133;BME280;2080;51.038;7.008;2023-05-24T02:14:54;47875.88;;;-142.53;75.16
4133;BME280;2080;51.038;7.008;2023-05-24T02:17:21;47764.16;;;-142.53;75.43
4133;BME280;2080;51.038;7.008;2023-05-24T02:19:47;47810.41;;;-142.53;75.81
4133;BME280;2080;51.038;7.008;2023-05-24T02:22:12;47806.53;;;-142.53;75.73
4133;BME280;2080;51.038;7.008;2023-05-24T02:24:37;47837.38;;;-142.53;76.75
4133;BME280;2080;51.038;7.008;2023-05-24T02:27:05;47852.78;;;-142.53;78.52
4133;BME280;2080;51.038;7.008;2023-05-24T02:29:30;47825.81;;;-142.53;79.47
4133;BME280;2080;51.038;7.008;2023-05-24T02:31:55;47833.50;;;-142.53;78.76
4133;BME280;2080;51.038;7.008;2023-05-24T02:34:23;47787.28;;;-142.53;78.84
4133;BME280;2080;51.038;7.008;2023-05-24T02:36:50;47833.50;;;-142.53;78.90
4133;BME280;2080;51.038;7.008;2023-05-24T02:39:15;47848.91;;;-142.53;78.85
4133;BME280;2080;51.038;7.008;2023-05-24T02:41:43;47806.53;;;-142.53;79.60
4133;BME280;2080;51.038;7.008;2023-05-24T02:44:08;47814.25;;;-142.53;79.36
4133;BME280;2080;51.038;7.008;2023-05-24T02:46:33;47831.59;;;-142.53;79.88
4133;BME280;2080;51.038;7.008;2023-05-24T02:48:59;47802.69;;;-142.53;79.91
4133;BME280;2080;51.038;7.008;2023-05-24T02:51:24;47821.94;;;-142.53;79.91
4133;BME280;2080;51.038;7.008;2023-05-24T02:53:54;47899.00;;;-142.53;81.00
4133;BME280;2080;51.038;7.008;2023-05-24T02:56:21;47800.78;;;-142.53;80.79
4133;BME280;2080;51.038;7.008;2023-05-24T02:58:47;47798.84;;;-142.53;80.85
4133;BME280;2080;51.038;7.008;2023-05-24T03:01:15;47806.53;;;-142.53;80.86
4133;BME280;2080;51.038;7.008;2023-05-24T03:03:40;47820.03;;;-142.53;81.27
4133;BME280;2080;51.038;7.008;2023-05-24T03:06:08;47798.84;;;-142.53;81.96
4133;BME280;2080;51.038;7.008;2023-05-24T03:08:33;47820.03;;;-142.53;82.47
4133;BME280;2080;51.038;7.008;2023-05-24T03:11:00;47848.91;;;-142.53;82.80
4133;BME280;2080;51.038;7.008;2023-05-24T03:13:26;47787.28;;;-142.53;83.28
4133;BME280;2080;51.038;7.008;2023-05-24T03:15:51;47775.72;;;-142.53;82.72
4133;BME280;2080;51.038;7.008;2023-05-24T03:18:19;47820.03;;;-142.53;82.35
4133;BME280;2080;51.038;7.008;2023-05-24T03:20:44;47821.94;;;-142.53;81.74
4133;BME280;2080;51.038;7.008;2023-05-24T03:23:12;47845.06;;;-142.53;82.02
4133;BME280;2080;51.038;7.008;2023-05-24T03:25:37;47795.00;;;-142.53;82.53
4133;BME280;2080;51.038;7.008;2023-05-24T03:28:04;47785.34;;;-142.53;82.61
4133;BME280;2080;51.038;7.008;2023-05-24T03:30:32;47810.41;;;-142.53;83.67
4133;BME280;2080;51.038;7.008;2023-05-24T03:33:02;47835.44;;;-142.53;83.88
4133;BME280;2080;51.038;7.008;2023-05-24T03:35:30;47837.38;;;-142.53;83.80
4133;BME280;2080;51.038;7.008;2023-05-24T03:37:58;47825.81;;;-142.53;83.11
4133;BME280;2080;51.038;7.008;2023-05-24T03:40:23;47800.78;;;-142.53;82.68
4133;BME280;2080;51.038;7.008;2023-05-24T03:42:53;47839.28;;;-142.53;82.41
4133;BME280;2080;51.038;7.008;2023-05-24T03:45:18;47833.50;;;-142.53;82.97
4133;BME280;2080;51.038;7.008;2023-05-24T03:47:46;47825.81;;;-142.53;83.49
4133;BME280;2080;51.038;7.008;2023-05-24T03:50:11;47848.91;;;-142.53;83.67
4133;BME280;2080;51.038;7.008;2023-05-24T03:52:38;47818.09;;;-142.53;83.53
4133;BME280;2080;51.038;7.008;2023-05-24T03:55:04;47810.41;;;-142.53;82.99
4133;BME280;2080;51.038;7.008;2023-05-24T03:57:29;47802.69;;;-142.53;83.10
4133;BME280;2080;51.038;7.008;2023-05-24T03:59:55;47787.28;;;-142.53;83.67
4133;BME280;2080;51.038;7.008;2023-05-24T04:02:20;47821.94;;;-142.53;82.97
4133;BME280;2080;51.038;7.008;2023-05-24T04:04:45;47814.25;;;-142.53;82.42
4133;BME280;2080;51.038;7.008;2023-05-24T04:07:11;47793.06;;;-142.53;82.43
4133;BME280;2080;51.038;7.008;2023-05-24T04:09:40;47818.09;;;-142.53;82.83
4133;BME280;2080;51.038;7.008;2023-05-24T04:12:05;47818.09;;;-142.53;82.88
4133;BME280;2080;51.038;7.008;2023-05-24T04:14:31;47829.66;;;-142.53;81.93
4133;BME280;2080;51.038;7.008;2023-05-24T04:16:56;47779.59;;;-142.53;82.63
4133;BME280;2080;51.038;7.008;2023-05-24T04:19:22;47764.16;;;-142.53;80.13
4133;BME280;2080;51.038;7.008;2023-05-24T04:21:48;47808.47;;;-142.53;78.25
4133;BME280;2080;51.038;7.008;2023-05-24T04:24:14;47771.88;;;-142.53;77.70
4133;BME280;2080;51.038;7.008;2023-05-24T04:26:40;47764.16;;;-142.53;76.89
4133;BME280;2080;51.038;7.008;2023-05-24T04:29:05;47771.88;;;-142.53;78.19
4133;BME280;2080;51.038;7.008;2023-05-24T04:31:31;47768.03;;;-142.53;78.54
4133;BME280;2080;51.038;7.008;2023-05-24T04:33:58;47785.34;;;-142.53;75.43
4133;BME280;2080;51.038;7.008;2023-05-24T04:36:24;47785.34;;;-142.53;74.62
4133;BME280;2080;51.038;7.008;2023-05-24T04:38:52;47742.97;;;-142.53;71.91
4133;BME280;2080;51.038;7.008;2023-05-24T04:41:21;47742.97;;;-142.53;70.91
4133;BME280;2080;51.038;7.008;2023-05-24T04:43:47;47783.44;;;-142.53;68.84
4133;BME280;2080;51.038;7.008;2023-05-24T04:46:12;47748.75;;;-142.53;66.48
4133;BME280;2080;51.038;7.008;2023-05-24T04:48:43;47795.00;;;-142.53;65.61
4133;BME280;2080;51.038;7.008;2023-05-24T04:51:08;47766.09;;;-142.53;65.70
4133;BME280;2080;51.038;7.008;2023-05-24T04:53:36;47787.28;;;-142.53;67.91
4133;BME280;2080;51.038;7.008;2023-05-24T04:56:05;47771.88;;;-142.53;68.13
4133;BME280;2080;51.038;7.008;2023-05-24T04:58:32;47798.84;;;-142.53;69.18
4133;BME280;2080;51.038;7.008;2023-05-24T05:01:01;47744.91;;;-142.53;70.71
4133;BME280;2080;51.038;7.008;2023-05-24T05:03:26;47764.16;;;-142.53;69.06
4133;BME280;2080;51.038;7.008;2023-05-24T05:05:52;47725.66;;;-142.53;68.89
4133;BME280;2080;51.038;7.008;2023-05-24T05:08:19;47769.94;;;-142.53;69.15
4133;BME280;2080;51.038;7.008;2023-05-24T05:10:45;47764.16;;;-142.53;70.22
4133;BME280;2080;51.038;7.008;2023-05-24T05:13:11;47702.53;;;-142.53;68.53
4133;BME280;2080;51.038;7.008;2023-05-24T05:15:36;47760.31;;;-142.53;68.80
4133;BME280;2080;51.038;7.008;2023-05-24T05:18:02;47866.25;;;-142.53;66.86
4133;BME280;2080;51.038;7.008;2023-05-24T05:20:27;47791.13;;;-142.53;67.78
4133;BME280;2080;51.038;7.008;2023-05-24T05:22:53;47771.88;;;-142.53;67.20
4133;BME280;2080;51.038;7.008;2023-05-24T05:25:18;47806.53;;;-142.53;69.81
4133;BME280;2080;51.038;7.008;2023-05-24T05:27:46;47752.63;;;-142.53;68.28
4133;BME280;2080;51.038;7.008;2023-05-24T05:30:11;47775.72;;;-142.53;69.42
4133;BME280;2080;51.038;7.008;2023-05-24T05:32:37;47748.75;;;-142.53;69.03
4133;BME280;2080;51.038;7.008;2023-05-24T05:35:03;47777.66;;;-142.53;67.38
4133;BME280;2080;51.038;7.008;2023-05-24T05:37:33;47771.88;;;-142.53;65.73
4133;BME280;2080;51.038;7.008;2023-05-24T05:39:58;47750.69;;;-142.53;66.56
4133;BME280;2080;51.038;7.008;2023-05-24T05:42:26;47752.63;;;-142.53;67.12
4133;BME280;2080;51.038;7.008;2023-05-24T05:44:51;47704.47;;;-142.53;66.11
4133;BME280;2080;51.038;7.008;2023-05-24T05:47:19;47756.47;;;-142.53;64.56
4133;BME280;2080;51.038;7.008;2023-05-24T05:49:47;47775.72;;;-142.53;64.48
4133;BME280;2080;51.038;7.008;2023-05-24T05:52:14;47744.91;;;-142.53;64.35
4133;BME280;2080;51.038;7.008;2023-05-24T05:54:40;47710.25;;;-142.53;63.39
4133;BME280;2080;51.038;7.008;2023-05-24T05:57:05;47775.72;;;-142.53;65.81
4133;BME280;2080;51.038;7.008;2023-05-24T05:59:32;47798.84;;;-142.53;67.12
4133;BME280;2080;51.038;7.008;2023-05-24T06:02:00;47775.72;;;-142.53;67.77
4133;BME280;2080;51.038;7.008;2023-05-24T06:04:27;47741.06;;;-142.53;65.76
4133;BME280;2080;51.038;7.008;2023-05-24T06:06:52;47771.88;;;-142.53;65.59
4133;BME280;2080;51.038;7.008;2023-05-24T06:09:21;47781.50;;;-142.53;65.54
4133;BME280;2080;51.038;7.008;2023-05-24T06:11:46;47717.94;;;-142.53;63.94
4133;BME280;2080;51.038;7.008;2023-05-24T06:14:13;47721.78;;;-142.53;65.57
4133;BME280;2080;51.038;7.008;2023-05-24T06:16:43;47775.72;;;-142.53;64.00
4133;BME280;2080;51.038;7.008;2023-05-24T06:19:10;47739.13;;;-142.53;62.40
4133;BME280;2080;51.038;7.008;2023-05-24T06:21:35;47725.66;;;-142.53;61.99
4133;BME280;2080;51.038;7.008;2023-05-24T06:24:04;47723.72;;;-142.53;60.85
4133;BME280;2080;51.038;7.008;2023-05-24T06:26:29;47692.91;;;-142.53;60.31
4133;BME280;2080;51.038;7.008;2023-05-24T06:28:55;47733.34;;;-142.53;59.09
4133;BME280;2080;51.038;7.008;2023-05-24T06:31:20;47729.50;;;-142.53;57.77
4133;BME280;2080;51.038;7.008;2023-05-24T06:33:46;47737.22;;;-142.53;55.92
4133;BME280;2080;51.038;7.008;2023-05-24T06:36:11;47733.34;;;-142.53;56.38
4133;BME280;2080;51.038;7.008;2023-05-24T06:38:36;47694.84;;;-142.53;55.59
4133;BME280;2080;51.038;7.008;2023-05-24T06:41:03;47694.84;;;-142.53;55.28
4133;BME280;2080;51.038;7.008;2023-05-24T06:43:28;47737.22;;;-142.53;54.80
4133;BME280;2080;51.038;7.008;2023-05-24T06:45:54;47764.16;;;-142.53;53.92
4133;BME280;2080;51.038;7.008;2023-05-24T06:48:20;47714.09;;;-142.53;53.94
4133;BME280;2080;51.038;7.008;2023-05-24T06:50:45;47650.53;;;-142.53;54.34
4133;BME280;2080;51.038;7.008;2023-05-24T06:53:11;47731.44;;;-142.53;53.71
4133;BME280;2080;51.038;7.008;2023-05-24T06:55:37;47729.50;;;-142.53;53.53
4133;BME280;2080;51.038;7.008;2023-05-24T06:58:02;47721.78;;;-142.53;53.25
4133;BME280;2080;51.038;7.008;2023-05-24T07:00:28;47729.50;;;-142.53;52.54
4133;BME280;2080;51.038;7.008;2023-05-24T07:02:53;47735.28;;;-142.53;53.88
4133;BME280;2080;51.038;7.008;2023-05-24T07:05:21;47760.31;;;-142.53;54.40
4133;BME280;2080;51.038;7.008;2023-05-24T07:07:51;47671.72;;;-142.53;54.50
4133;BME280;2080;51.038;7.008;2023-05-24T07:10:17;47717.94;;;-142.53;53.85
4133;BME280;2080;51.038;7.008;2023-05-24T07:12:42;47764.16;;;-142.53;53.93
4133;BME280;2080;51.038;7.008;2023-05-24T07:15:10;47762.25;;;-142.53;55.79
4133;BME280;2080;51.038;7.008;2023-05-24T07:17:40;47760.31;;;-142.53;55.91
4133;BME280;2080;51.038;7.008;2023-05-24T07:20:06;47744.91;;;-142.53;56.03
4133;BME280;2080;51.038;7.008;2023-05-24T07:22:34;47762.25;;;-142.53;55.73
4133;BME280;2080;51.038;7.008;2023-05-24T07:25:00;47779.59;;;-142.53;55.95
4133;BME280;2080;51.038;7.008;2023-05-24T07:27:28;47762.25;;;-142.53;53.22
4133;BME280;2080;51.038;7.008;2023-05-24T07:29:53;47664.03;;;-142.53;54.21
4133;BME280;2080;51.038;7.008;2023-05-24T07:32:18;47696.75;;;-142.53;54.41
4133;BME280;2080;51.038;7.008;2023-05-24T07:34:44;47717.94;;;-142.53;51.83
4133;BME280;2080;51.038;7.008;2023-05-24T07:37:09;47710.25;;;-142.53;51.50
4133;BME280;2080;51.038;7.008;2023-05-24T07:39:35;47744.91;;;-142.53;50.57
4133;BME280;2080;51.038;7.008;2023-05-24T07:42:05;47758.41;;;-142.53;52.42
4133;BME280;2080;51.038;7.008;2023-05-24T07:44:31;47710.25;;;-142.53;50.58
4133;BME280;2080;51.038;7.008;2023-05-24T07:46:59;47706.38;;;-142.53;48.53
4133;BME280;2080;51.038;7.008;2023-05-24T07:49:28;47706.38;;;-142.53;49.04
4133;BME280;2080;51.038;7.008;2023-05-24T07:51:54;47644.75;;;-142.53;48.42
4133;BME280;2080;51.038;7.008;2023-05-24T07:54:22;47717.94;;;-142.53;50.82
4133;BME280;2080;51.038;7.008;2023-05-24T07:56:47;47760.31;;;-142.53;50.54
4133;BME280;2080;51.038;7.008;2023-05-24T07:59:13;47748.75;;;-142.53;50.51
4133;BME280;2080;51.038;7.008;2023-05-24T08:01:38;47762.25;;;-142.53;51.23
4133;BME280;2080;51.038;7.008;2023-05-24T08:04:04;47721.78;;;-142.53;50.84
4133;BME280;2080;51.038;7.008;2023-05-24T08:06:32;47725.66;;;-142.53;50.28
4133;BME280;2080;51.038;7.008;2023-05-24T08:08:59;47771.88;;;-142.53;50.19
4133;BME280;2080;51.038;7.008;2023-05-24T08:11:24;47694.84;;;-142.53;49.31
4133;BME280;2080;51.038;7.008;2023-05-24T08:13:50;47764.16;;;-142.53;48.24
4133;BME280;2080;51.038;7.008;2023-05-24T08:16:18;47775.72;;;-142.53;48.38
4133;BME280;2080;51.038;7.008;2023-05-24T08:18:46;47760.31;;;-142.53;47.82
4133;BME280;2080;51.038;7.008;2023-05-24T08:21:13;47771.88;;;-142.53;48.13
4133;BME280;2080;51.038;7.008;2023-05-24T08:23:39;47690.97;;;-142.53;46.40
4133;BME280;2080;51.038;7.008;2023-05-24T08:26:04;47717.94;;;-142.53;46.15
4133;BME280;2080;51.038;7.008;2023-05-24T08:28:30;47779.59;;;-142.53;46.59
4133;BME280;2080;51.038;7.008;2023-05-24T08:30:58;47756.47;;;-142.53;46.56
4133;BME280;2080;51.038;7.008;2023-05-24T08:33:23;47737.22;;;-142.53;45.74
4133;BME280;2080;51.038;7.008;2023-05-24T08:35:49;47729.50;;;-142.53;45.40
4133;BME280;2080;51.038;7.008;2023-05-24T08:38:16;47764.16;;;-142.53;45.50
4133;BME280;2080;51.038;7.008;2023-05-24T08:40:41;47725.66;;;-142.53;45.67
4133;BME280;2080;51.038;7.008;2023-05-24T08:43:09;47758.41;;;-142.53;44.84
4133;BME280;2080;51.038;7.008;2023-05-24T08:45:37;47717.94;;;-142.53;43.97
4133;BME280;2080;51.038;7.008;2023-05-24T08:48:04;47694.84;;;-142.53;43.61
4133;BME280;2080;51.038;7.008;2023-05-24T08:50:30;47737.22;;;-142.53;44.68
4133;BME280;2080;51.038;7.008;2023-05-24T08:53:01;47741.06;;;-142.53;44.33
4133;BME280;2080;51.038;7.008;2023-05-24T08:55:30;47710.25;;;-142.53;43.96
4133;BME280;2080;51.038;7.008;2023-05-24T08:57:56;47733.34;;;-142.53;44.02
4133;BME280;2080;51.038;7.008;2023-05-24T09:00:22;47687.13;;;-142.53;42.93
4133;BME280;2080;51.038;7.008;2023-05-24T09:02:48;47700.63;;;-142.53;42.14
4133;BME280;2080;51.038;7.008;2023-05-24T09:05:14;47692.91;;;-142.53;43.19
4133;BME280;2080;51.038;7.008;2023-05-24T09:07:47;47739.13;;;-142.53;43.70
4133;BME280;2080;51.038;7.008;2023-05-24T09:10:13;47719.88;;;-142.53;43.70
4133;BME280;2080;51.038;7.008;2023-05-24T09:12:42;47702.53;;;-142.53;43.34
4133;BME280;2080;51.038;7.008;2023-05-24T09:15:08;47714.09;;;-142.53;41.89
4133;BME280;2080;51.038;7.008;2023-05-24T09:17:37;47681.34;;;-142.53;41.65
4133;BME280;2080;51.038;7.008;2023-05-24T09:20:04;47687.13;;;-142.53;41.60
4133;BME280;2080;51.038;7.008;2023-05-24T09:22:36;47698.69;;;-142.53;42.43
4133;BME280;2080;51.038;7.008;2023-05-24T09:25:05;47687.13;;;-142.53;41.42
4133;BME280;2080;51.038;7.008;2023-05-24T09:27:33;47729.50;;;-142.53;41.70
4133;BME280;2080;51.038;7.008;2023-05-24T09:29:59;47706.38;;;-142.53;41.54
4133;BME280;2080;51.038;7.008;2023-05-24T09:32:26;47675.56;;;-142.53;40.75
4133;BME280;2080;51.038;7.008;2023-05-24T09:34:54;47677.50;;;-142.53;41.04
4133;BME280;2080;51.038;7.008;2023-05-24T09:37:21;47698.69;;;-142.53;41.07
4133;BME280;2080;51.038;7.008;2023-05-24T09:39:49;47702.53;;;-142.53;40.03
4133;BME280;2080;51.038;7.008;2023-05-24T09:42:21;47702.53;;;-142.53;39.07
4133;BME280;2080;51.038;7.008;2023-05-24T09:47:32;47687.13;;;-142.53;39.46
4133;BME280;2080;51.038;7.008;2023-05-24T09:49:59;47698.69;;;-142.53;40.29
4133;BME280;2080;51.038;7.008;2023-05-24T09:52:27;47733.34;;;-142.53;40.51
4133;BME280;2080;51.038;7.008;2023-05-24T09:54:53;47654.38;;;-142.53;39.35
4133;BME280;2080;51.038;7.008;2023-05-24T09:57:19;47710.25;;;-142.53;39.35
4133;BME280;2080;51.038;7.008;2023-05-24T09:59:48;47644.75;;;-142.53;39.63
4133;BME280;2080;51.038;7.008;2023-05-24T10:02:16;47717.94;;;-142.53;40.74
4133;BME280;2080;51.038;7.008;2023-05-24T10:04:44;47640.91;;;-142.53;38.54
4133;BME280;2080;51.038;7.008;2023-05-24T10:07:10;47617.78;;;-142.53;38.04
4133;BME280;2080;51.038;7.008;2023-05-24T10:09:36;47690.97;;;-142.53;37.60
4133;BME280;2080;51.038;7.008;2023-05-24T10:12:04;47683.28;;;-142.53;38.63
4133;BME280;2080;51.038;7.008;2023-05-24T10:14:37;47725.66;;;-142.53;39.24
4133;BME280;2080;51.038;7.008;2023-05-24T10:17:04;47677.50;;;-142.53;39.50
4133;BME280;2080;51.038;7.008;2023-05-24T10:19:33;47644.75;;;-142.53;38.29
4133;BME280;2080;51.038;7.008;2023-05-24T10:22:03;47717.94;;;-142.53;38.89
4133;BME280;2080;51.038;7.008;2023-05-24T10:24:45;47706.38;;;-142.53;39.62
4133;BME280;2080;51.038;7.008;2023-05-24T10:27:18;47741.06;;;-142.53;38.08
4133;BME280;2080;51.038;7.008;2023-05-24T10:32:15;47671.72;;;-142.53;38.05
4133;BME280;2080;51.038;7.008;2023-05-24T10:34:42;47667.88;;;-142.53;37.80
4133;BME280;2080;51.038;7.008;2023-05-24T10:37:11;47642.84;;;-142.53;37.42
4133;BME280;2080;51.038;7.008;2023-05-24T10:39:38;47681.34;;;-142.53;37.68
4133;BME280;2080;51.038;7.008;2023-05-24T10:42:05;47710.25;;;-142.53;37.33
4133;BME280;2080;51.038;7.008;2023-05-24T10:44:31;47694.84;;;-142.53;37.07
4133;BME280;2080;51.038;7.008;2023-05-24T10:47:15;47714.09;;;-142.53;38.30
4133;BME280;2080;51.038;7.008;2023-05-24T10:49:51;47671.72;;;-142.53;38.14
4133;BME280;2080;51.038;7.008;2023-05-24T10:52:17;47694.84;;;-142.53;37.73
4133;BME280;2080;51.038;7.008;2023-05-24T10:57:31;47756.47;;;-142.53;38.34
4133;BME280;2080;51.038;7.008;2023-05-24T11:02:50;47702.53;;;-142.53;37.56
4133;BME280;2080;51.038;7.008;2023-05-24T11:05:16;47690.97;;;-142.53;37.70
4133;BME280;2080;51.038;7.008;2023-05-24T11:07:44;47685.19;;;-142.53;37.23
4133;BME280;2080;51.038;7.008;2023-05-24T11:10:14;47673.66;;;-142.53;36.99
4133;BME280;2080;51.038;7.008;2023-05-24T11:12:41;47687.13;;;-142.53;37.40
4133;BME280;2080;51.038;7.008;2023-05-24T11:15:13;47683.28;;;-142.53;37.42
4133;BME280;2080;51.038;7.008;2023-05-24T11:20:40;47721.78;;;-142.53;36.58
4133;BME280;2080;51.038;7.008;2023-05-24T11:23:07;47679.44;;;-142.53;36.68
4133;BME280;2080;51.038;7.008;2023-05-24T11:25:34;47637.06;;;-142.53;36.67
4133;BME280;2080;51.038;7.008;2023-05-24T11:28:02;47814.25;;;-142.53;36.28
4133;BME280;2080;51.038;7.008;2023-05-24T11:30:29;47658.25;;;-142.53;35.70
4133;BME280;2080;51.038;7.008;2023-05-24T11:32:58;47662.09;;;-142.53;36.51
4133;BME280;2080;51.038;7.008;2023-05-24T11:35:25;47735.28;;;-142.53;37.45
4133;BME280;2080;51.038;7.008;2023-05-24T11:38:01;47737.22;;;-142.53;37.59
4133;BME280;2080;51.038;7.008;2023-05-24T11:40:26;47714.09;;;-142.53;37.59
4133;BME280;2080;51.038;7.008;2023-05-24T11:42:52;47706.38;;;-142.53;37.47
4133;BME280;2080;51.038;7.008;2023-05-24T11:45:17;47752.63;;;-142.53;37.07
4133;BME280;2080;51.038;7.008;2023-05-24T11:47:43;47748.75;;;-142.53;37.16
4133;BME280;2080;51.038;7.008;2023-05-24T11:50:09;47717.94;;;-142.53;37.37
4133;BME280;2080;51.038;7.008;2023-05-24T11:52:39;47746.84;;;-142.53;37.59
4133;BME280;2080;51.038;7.008;2023-05-24T11:55:05;47748.75;;;-142.53;38.49
4133;BME280;2080;51.038;7.008;2023-05-24T11:57:41;47690.97;;;-142.53;38.67
4133;BME280;2080;51.038;7.008;2023-05-24T12:00:10;47725.66;;;-142.53;37.65
4133;BME280;2080;51.038;7.008;2023-05-24T12:02:41;47756.47;;;-142.53;37.40
4133;BME280;2080;51.038;7.008;2023-05-24T12:05:07;47737.22;;;-142.53;37.86
4133;BME280;2080;51.038;7.008;2023-05-24T12:07:34;47664.03;;;-142.53;37.32
4133;BME280;2080;51.038;7.008;2023-05-24T12:10:03;47690.97;;;-142.53;37.15
4133;BME280;2080;51.038;7.008;2023-05-24T12:12:29;47704.47;;;-142.53;37.37
4133;BME280;2080;51.038;7.008;2023-05-24T12:14:57;47714.09;;;-142.53;37.30
4133;BME280;2080;51.038;7.008;2023-05-24T12:17:22;47721.78;;;-142.53;36.71
4133;BME280;2080;51.038;7.008;2023-05-24T12:19:49;47706.38;;;-142.53;37.01
4133;BME280;2080;51.038;7.008;2023-05-24T12:22:17;47683.28;;;-142.53;35.91
4133;BME280;2080;51.038;7.008;2023-05-24T12:24:48;47679.44;;;-142.53;35.18
4133;BME280;2080;51.038;7.008;2023-05-24T12:27:13;47660.16;;;-142.53;34.80
4133;BME280;2080;51.038;7.008;2023-05-24T12:29:41;47679.44;;;-142.53;34.77
4133;BME280;2080;51.038;7.008;2023-05-24T12:32:09;47623.56;;;-142.53;34.17
4133;BME280;2080;51.038;7.008;2023-05-24T12:34:40;47602.38;;;-142.53;33.85
4133;BME280;2080;51.038;7.008;2023-05-24T12:37:07;47664.03;;;-142.53;33.47
4133;BME280;2080;51.038;7.008;2023-05-24T12:39:35;47617.78;;;-142.53;32.38
4133;BME280;2080;51.038;7.008;2023-05-24T12:42:01;47646.69;;;-142.53;33.54
4133;BME280;2080;51.038;7.008;2023-05-24T12:46:54;47635.13;;;-142.53;32.80
4133;BME280;2080;51.038;7.008;2023-05-24T12:49:24;47662.09;;;-142.53;33.74
4133;BME280;2080;51.038;7.008;2023-05-24T12:51:53;47598.53;;;-142.53;33.14
4133;BME280;2080;51.038;7.008;2023-05-24T12:54:22;47679.44;;;-142.53;33.44
4133;BME280;2080;51.038;7.008;2023-05-24T12:56:50;47652.47;;;-142.53;33.56
4133;BME280;2080;51.038;7.008;2023-05-24T12:59:18;47702.53;;;-142.53;34.97
4133;BME280;2080;51.038;7.008;2023-05-24T13:01:43;47706.38;;;-142.53;34.59
4133;BME280;2080;51.038;7.008;2023-05-24T13:04:17;47687.13;;;-142.53;34.20
4133;BME280;2080;51.038;7.008;2023-05-24T13:06:46;47671.72;;;-142.53;34.03
4133;BME280;2080;51.038;7.008;2023-05-24T13:09:12;47694.84;;;-142.53;34.26
4133;BME280;2080;51.038;7.008;2023-05-24T13:11:38;47656.31;;;-142.53;34.62
4133;BME280;2080;51.038;7.008;2023-05-24T13:14:04;47679.44;;;-142.53;34.81
4133;BME280;2080;51.038;7.008;2023-05-24T13:16:30;47660.16;;;-142.53;34.83
4133;BME280;2080;51.038;7.008;2023-05-24T13:18:56;47696.75;;;-142.53;34.85
4133;BME280;2080;51.038;7.008;2023-05-24T13:21:22;47714.09;;;-142.53;35.57
4133;BME280;2080;51.038;7.008;2023-05-24T13:23:49;47679.44;;;-142.53;35.26
4133;BME280;2080;51.038;7.008;2023-05-24T13:26:16;47706.38;;;-142.53;35.35
4133;BME280;2080;51.038;7.008;2023-05-24T13:28:42;47731.44;;;-142.53;35.39
4133;BME280;2080;51.038;7.008;2023-05-24T13:31:07;47694.84;;;-142.53;35.30